createdAt,value
2019-05-19T00:01:39.621Z,73.20
2019-05-19T00:04:09.298Z,68.60
2019-05-19T00:06:38.918Z,70.10
2019-05-19T00:09:09.810Z,72.63
2019-05-19T00:11:39.506Z,71.80
2019-05-19T00:14:09.134Z,73.93
2019-05-19T00:16:38.813Z,77.37
2019-05-19T00:19:08.435Z,74.23
2019-05-19T00:21:38.110Z,76.13
2019-05-19T00:24:07.769Z,75.10
2019-05-19T00:26:37.392Z,73.63
2019-05-19T00:29:07.075Z,71.77
2019-05-19T00:31:36.674Z,70.70
2019-05-19T00:34:06.382Z,74.77
2019-05-19T00:36:35.982Z,69.30
2019-05-19T00:39:06.510Z,67.87
2019-05-19T00:41:36.222Z,66.63
2019-05-19T00:44:06.211Z,67.93
2019-05-19T00:46:35.922Z,69.07
2019-05-19T00:49:05.608Z,68.67
2019-05-19T00:51:35.679Z,70.43
2019-05-19T00:54:05.365Z,71.47
2019-05-19T00:56:35.809Z,65.40
2019-05-19T00:59:05.790Z,68.60
2019-05-19T01:01:35.479Z,68.57
2019-05-19T01:04:05.099Z,63.77
2019-05-19T01:06:35.798Z,69.30
2019-05-19T01:09:07.203Z,71.87
2019-05-19T01:11:36.920Z,67.23
2019-05-19T01:14:18.377Z,72.57
2019-05-19T01:16:48.001Z,72.80
2019-05-19T01:19:17.638Z,78.13
2019-05-19T01:21:47.802Z,77.53
2019-05-19T01:24:17.434Z,71.77
2019-05-19T01:26:47.046Z,75.63
2019-05-19T01:29:16.742Z,75.17
2019-05-19T01:31:46.361Z,71.07
2019-05-19T01:34:16.179Z,70.43
2019-05-19T01:36:45.866Z,77.03
2019-05-19T01:39:15.502Z,77.57
2019-05-19T01:41:45.122Z,77.77
2019-05-19T01:44:14.734Z,79.67
2019-05-19T01:46:44.467Z,75.00
2019-05-19T01:49:14.111Z,78.97
2019-05-19T01:51:43.736Z,78.50
2019-05-19T01:54:16.630Z,80.10
2019-05-19T01:56:44.671Z,77.60
2019-05-19T01:59:14.313Z,86.37
2019-05-19T02:01:43.951Z,80.90
2019-05-19T02:04:13.621Z,90.53
2019-05-19T02:06:43.226Z,83.90
2019-05-19T02:09:13.942Z,81.87
2019-05-19T02:11:43.606Z,86.50
2019-05-19T02:14:13.218Z,84.13
2019-05-19T02:16:42.836Z,82.07
2019-05-19T02:19:12.465Z,77.63
2019-05-19T02:21:42.074Z,71.73
2019-05-19T02:24:12.706Z,75.90
2019-05-19T02:26:42.478Z,80.70
2019-05-19T02:29:12.096Z,80.00
2019-05-19T02:31:41.800Z,79.73
2019-05-19T02:34:11.481Z,78.03
2019-05-19T02:36:41.168Z,81.57
2019-05-19T02:39:10.943Z,78.10
2019-05-19T02:41:42.414Z,75.83
2019-05-19T02:44:13.699Z,77.70
2019-05-19T02:46:43.774Z,76.93
2019-05-19T02:49:14.130Z,78.17
2019-05-19T02:51:46.142Z,78.07
2019-05-19T02:54:15.999Z,71.93
2019-05-19T02:56:47.258Z,75.80
2019-05-19T02:59:18.223Z,72.07
2019-05-19T03:02:12.148Z,71.87
2019-05-19T03:04:41.763Z,72.50
2019-05-19T03:07:11.428Z,77.30
2019-05-19T03:09:41.038Z,72.67
2019-05-19T03:12:10.728Z,71.13
2019-05-19T03:14:40.343Z,71.73
2019-05-19T03:17:09.950Z,66.73
2019-05-19T03:19:39.585Z,59.97
2019-05-19T03:22:09.228Z,66.07
2019-05-19T03:24:38.844Z,62.13
2019-05-19T03:27:08.455Z,62.60
2019-05-19T03:29:42.542Z,61.30
2019-05-19T03:32:40.644Z,61.97
2019-05-19T03:35:10.458Z,53.13
2019-05-19T03:37:40.063Z,57.73
2019-05-19T03:40:22.026Z,51.77
2019-05-19T03:42:52.007Z,55.57
2019-05-19T03:45:21.642Z,53.93
2019-05-19T03:47:51.255Z,53.23
2019-05-19T03:50:20.870Z,51.73
2019-05-19T03:52:51.456Z,48.67
2019-05-19T03:55:21.807Z,51.17
2019-05-19T03:58:03.534Z,53.37
2019-05-19T04:00:33.235Z,43.60
2019-05-19T04:03:02.915Z,49.40
2019-05-19T04:05:32.603Z,38.33
2019-05-19T04:08:02.224Z,51.43
2019-05-19T04:10:31.857Z,42.17
2019-05-19T04:13:01.443Z,45.60
2019-05-19T04:15:31.055Z,50.30
2019-05-19T04:18:00.808Z,46.50
2019-05-19T04:20:30.517Z,47.30
2019-05-19T04:23:00.404Z,44.70
2019-05-19T04:25:30.092Z,53.87
2019-05-19T04:28:02.662Z,49.33
2019-05-19T04:30:32.357Z,51.60
2019-05-19T04:33:01.990Z,51.73
2019-05-19T04:35:31.651Z,52.87
2019-05-19T04:38:01.281Z,50.10
2019-05-19T04:40:30.910Z,44.87
2019-05-19T04:43:00.592Z,49.80
2019-05-19T04:45:30.214Z,51.27
2019-05-19T04:47:59.998Z,45.57
2019-05-19T04:50:29.648Z,46.03
2019-05-19T04:52:59.372Z,51.97
2019-05-19T04:55:28.990Z,47.37
2019-05-19T04:57:58.606Z,46.70
2019-05-19T05:00:28.292Z,52.47
2019-05-19T05:02:57.927Z,48.87
2019-05-19T05:05:27.634Z,47.80
2019-05-19T05:07:58.658Z,49.13
2019-05-19T05:10:28.357Z,47.40
2019-05-19T05:12:58.020Z,46.60
2019-05-19T05:15:27.704Z,50.63
2019-05-19T05:17:57.566Z,43.20
2019-05-19T05:20:27.189Z,44.67
2019-05-19T05:22:56.826Z,49.37
2019-05-19T05:25:26.535Z,46.07
2019-05-19T05:27:56.163Z,45.60
2019-05-19T05:30:25.772Z,47.57
2019-05-19T05:32:55.379Z,47.03
2019-05-19T05:35:25.169Z,47.67
2019-05-19T05:37:54.762Z,47.93
2019-05-19T05:40:24.374Z,41.67
2019-05-19T05:42:53.996Z,45.97
2019-05-19T05:45:23.678Z,47.90
2019-05-19T05:47:53.298Z,44.37
2019-05-19T05:50:22.978Z,39.27
2019-05-19T05:52:53.564Z,45.80
2019-05-19T05:55:23.214Z,47.17
2019-05-19T05:57:52.846Z,44.63
2019-05-19T06:00:22.527Z,48.43
2019-05-19T06:02:52.156Z,48.70
2019-05-19T06:05:21.822Z,47.67
2019-05-19T06:07:51.430Z,45.10
2019-05-19T06:10:21.070Z,49.27
2019-05-19T06:12:50.715Z,42.13
2019-05-19T06:15:21.924Z,43.47
2019-05-19T06:17:51.544Z,40.37
2019-05-19T06:20:21.161Z,43.00
2019-05-19T06:22:56.663Z,41.93
2019-05-19T06:25:22.352Z,40.63
2019-05-19T06:27:52.230Z,41.53
2019-05-19T06:30:22.018Z,40.77
2019-05-19T06:32:53.217Z,40.70
2019-05-19T06:35:23.028Z,40.40
2019-05-19T06:37:52.666Z,43.63
2019-05-19T06:40:22.584Z,38.87
2019-05-19T06:42:52.183Z,36.53
2019-05-19T06:45:22.422Z,39.90
2019-05-19T06:47:52.015Z,41.00
2019-05-19T06:50:21.918Z,38.77
2019-05-19T06:52:51.594Z,30.20
2019-05-19T06:55:21.292Z,33.63
2019-05-19T06:57:50.961Z,41.20
2019-05-19T07:00:20.840Z,35.10
2019-05-19T07:02:50.528Z,37.40
2019-05-19T07:05:20.135Z,38.10
2019-05-19T07:07:49.734Z,34.57
2019-05-19T07:10:19.502Z,37.10
2019-05-19T07:12:49.112Z,36.80
2019-05-19T07:15:18.950Z,37.27
2019-05-19T07:17:48.580Z,32.27
2019-05-19T07:20:18.255Z,35.87
2019-05-19T07:22:48.012Z,38.53
2019-05-19T07:25:17.763Z,37.50
2019-05-19T07:27:47.380Z,36.13
2019-05-19T07:30:18.371Z,38.33
2019-05-19T07:32:48.149Z,34.53
2019-05-19T07:35:17.830Z,36.87
2019-05-19T07:37:47.457Z,36.63
2019-05-19T07:40:17.314Z,33.23
2019-05-19T07:42:46.930Z,32.87
2019-05-19T07:45:16.998Z,29.53
2019-05-19T07:47:46.602Z,25.80
2019-05-19T07:50:16.275Z,34.73
2019-05-19T07:52:45.882Z,32.40
2019-05-19T07:55:15.567Z,33.47
2019-05-19T07:57:45.174Z,36.90
2019-05-19T08:00:15.246Z,34.50
2019-05-19T08:02:44.898Z,40.60
2019-05-19T08:05:14.602Z,40.17
2019-05-19T08:07:44.209Z,36.83
2019-05-19T08:10:14.179Z,40.07
2019-05-19T08:12:43.774Z,41.77
2019-05-19T08:15:13.647Z,39.53
2019-05-19T08:17:43.289Z,38.27
2019-05-19T08:20:14.278Z,34.87
2019-05-19T08:22:43.898Z,31.00
2019-05-19T08:25:13.638Z,40.53
2019-05-19T08:27:43.243Z,37.23
2019-05-19T08:30:13.138Z,33.87
2019-05-19T08:32:42.957Z,29.53
2019-05-19T08:35:12.725Z,34.70
2019-05-19T08:37:42.347Z,30.87
2019-05-19T08:40:12.098Z,36.00
2019-05-19T08:42:41.706Z,34.67
2019-05-19T08:45:11.584Z,29.07
2019-05-19T08:47:41.203Z,33.63
2019-05-19T08:50:11.030Z,28.37
2019-05-19T08:52:40.811Z,31.57
2019-05-19T08:55:10.526Z,30.20
2019-05-19T08:57:40.386Z,29.77
2019-05-19T09:00:10.346Z,29.83
2019-05-19T09:02:40.027Z,29.83
2019-05-19T09:05:10.708Z,22.90
2019-05-19T09:07:40.301Z,27.40
2019-05-19T09:10:11.270Z,26.67
2019-05-19T09:12:40.895Z,26.30
2019-05-19T09:15:11.042Z,28.93
2019-05-19T09:17:40.645Z,23.43
2019-05-19T09:20:10.702Z,30.67
2019-05-19T09:22:40.312Z,27.00
2019-05-19T09:25:10.188Z,23.37
2019-05-19T09:27:39.801Z,27.83
2019-05-19T09:30:10.057Z,26.90
2019-05-19T09:32:40.614Z,28.10
2019-05-19T09:35:10.314Z,29.87
2019-05-19T09:37:39.939Z,27.10
2019-05-19T09:40:10.053Z,29.43
2019-05-19T09:42:39.652Z,25.13
2019-05-19T09:45:10.006Z,29.10
2019-05-19T09:47:39.601Z,28.50
2019-05-19T09:50:09.857Z,29.47
2019-05-19T09:52:39.494Z,29.03
2019-05-19T09:55:10.055Z,29.60
2019-05-19T09:57:39.786Z,28.87
2019-05-19T10:00:11.530Z,31.10
2019-05-19T10:02:41.133Z,28.77
2019-05-19T10:05:11.110Z,27.23
2019-05-19T10:07:40.710Z,27.13
2019-05-19T10:10:13.202Z,29.53
2019-05-19T10:12:42.893Z,30.40
2019-05-19T10:15:13.631Z,28.87
2019-05-19T10:17:43.314Z,26.97
2019-05-19T10:20:14.297Z,25.57
2019-05-19T10:22:43.937Z,29.87
2019-05-19T10:25:23.228Z,27.93
2019-05-19T10:27:46.503Z,28.50
2019-05-19T10:30:17.160Z,30.13
2019-05-19T10:32:46.788Z,28.07
2019-05-19T10:35:16.554Z,30.73
2019-05-19T10:37:46.174Z,30.50
2019-05-19T10:40:16.206Z,29.63
2019-05-19T10:42:45.830Z,28.40
2019-05-19T10:45:16.332Z,31.80
2019-05-19T10:47:45.970Z,29.93
2019-05-19T10:50:15.742Z,29.77
2019-05-19T10:52:45.503Z,30.90
2019-05-19T10:55:15.182Z,28.93
2019-05-19T10:57:44.818Z,31.43
2019-05-19T11:00:15.029Z,31.77
2019-05-19T11:02:44.694Z,30.53
2019-05-19T11:05:14.491Z,30.53
2019-05-19T11:07:44.118Z,31.30
2019-05-19T11:10:14.071Z,31.37
2019-05-19T11:12:46.841Z,30.27
2019-05-19T11:15:15.642Z,30.13
2019-05-19T11:17:45.265Z,27.90
2019-05-19T11:20:14.961Z,32.03
2019-05-19T11:22:44.587Z,32.80
2019-05-19T11:25:14.466Z,29.50
2019-05-19T11:27:44.087Z,26.90
2019-05-19T11:30:13.921Z,31.67
2019-05-19T11:32:43.549Z,34.37
2019-05-19T11:35:13.382Z,29.20
2019-05-19T11:37:42.986Z,35.60
2019-05-19T11:40:13.643Z,33.57
2019-05-19T11:42:43.249Z,36.37
2019-05-19T11:45:12.939Z,32.90
2019-05-19T11:47:42.554Z,35.87
2019-05-19T11:50:12.341Z,31.77
2019-05-19T11:52:41.935Z,34.53
2019-05-19T11:55:12.572Z,35.07
2019-05-19T11:57:42.175Z,37.30
2019-05-19T12:00:12.142Z,38.60
2019-05-19T12:02:41.745Z,29.10
2019-05-19T12:05:11.720Z,35.70
2019-05-19T12:07:41.311Z,39.07
2019-05-19T12:10:11.387Z,38.10
2019-05-19T12:12:41.046Z,38.67
2019-05-19T12:15:12.224Z,37.97
2019-05-19T12:17:41.815Z,38.07
2019-05-19T12:20:11.767Z,36.70
2019-05-19T12:22:41.371Z,37.27
2019-05-19T12:25:11.318Z,40.03
2019-05-19T12:27:40.938Z,39.67
2019-05-19T12:30:14.444Z,37.17
2019-05-19T12:32:44.128Z,39.00
2019-05-19T12:35:14.209Z,40.37
2019-05-19T12:37:43.821Z,37.93
2019-05-19T12:40:13.866Z,39.50
2019-05-19T12:42:43.485Z,43.03
2019-05-19T12:45:14.542Z,41.23
2019-05-19T12:47:44.218Z,41.00
2019-05-19T12:50:14.573Z,38.10
2019-05-19T12:52:44.178Z,40.23
2019-05-19T12:55:14.048Z,41.10
2019-05-19T12:57:43.775Z,39.70
2019-05-19T13:00:13.974Z,41.07
2019-05-19T13:02:43.583Z,41.10
2019-05-19T13:05:13.546Z,40.03
2019-05-19T13:07:43.306Z,41.40
2019-05-19T13:10:13.108Z,41.00
2019-05-19T13:12:42.715Z,41.07
2019-05-19T13:15:15.503Z,39.10
2019-05-19T13:17:43.886Z,40.17
2019-05-19T13:20:14.297Z,41.83
2019-05-19T13:22:43.904Z,42.30
2019-05-19T13:25:13.763Z,41.83
2019-05-19T13:27:43.456Z,40.73
2019-05-19T13:30:14.254Z,41.20
2019-05-19T13:32:43.900Z,37.10
2019-05-19T13:35:14.147Z,41.13
2019-05-19T13:37:43.746Z,38.30
2019-05-19T13:40:13.741Z,38.80
2019-05-19T13:42:43.466Z,37.50
2019-05-19T13:45:13.523Z,37.07
2019-05-19T13:47:43.134Z,37.23
2019-05-19T13:50:13.106Z,37.53
2019-05-19T13:52:42.703Z,37.40
2019-05-19T13:55:12.512Z,37.03
2019-05-19T13:57:42.127Z,38.23
2019-05-19T14:00:12.454Z,36.23
2019-05-19T14:02:42.316Z,37.17
2019-05-19T14:05:12.081Z,39.57
2019-05-19T14:07:41.690Z,40.73
2019-05-19T14:10:11.745Z,37.87
2019-05-19T14:12:41.446Z,40.03
2019-05-19T14:15:11.248Z,36.50
2019-05-19T14:17:41.006Z,38.00
2019-05-19T14:20:10.895Z,38.10
2019-05-19T14:22:40.542Z,28.57
2019-05-19T14:25:10.733Z,38.03
2019-05-19T14:27:40.453Z,34.57
2019-05-19T14:30:11.114Z,36.60
2019-05-19T14:32:40.725Z,33.20
2019-05-19T14:35:10.583Z,32.33
2019-05-19T14:37:40.230Z,30.63
2019-05-19T14:40:10.270Z,34.73
2019-05-19T14:42:56.302Z,34.23
2019-05-19T14:45:25.909Z,32.50
2019-05-19T14:47:55.576Z,32.43
2019-05-19T14:50:25.186Z,35.30
2019-05-19T14:52:54.788Z,33.40
2019-05-19T14:55:24.395Z,31.67
2019-05-19T14:57:54.010Z,36.30
2019-05-19T15:00:23.618Z,33.70
2019-05-19T15:02:53.306Z,31.03
2019-05-19T15:05:23.283Z,32.77
2019-05-19T15:07:53.112Z,30.17
2019-05-19T15:10:22.946Z,33.33
2019-05-19T15:12:52.570Z,31.93
2019-05-19T15:15:22.171Z,32.50
2019-05-19T15:17:51.771Z,27.07
2019-05-19T15:20:21.474Z,31.73
2019-05-19T15:22:51.158Z,32.13
2019-05-19T15:25:20.887Z,29.50
2019-05-19T15:27:59.848Z,29.13
2019-05-19T15:30:22.116Z,32.53
2019-05-19T15:32:51.757Z,32.87
2019-05-19T15:35:21.454Z,31.23
2019-05-19T15:37:51.070Z,32.63
2019-05-19T15:40:20.717Z,34.33
2019-05-19T15:42:50.350Z,29.47
2019-05-19T15:45:20.129Z,31.43
2019-05-19T15:47:49.715Z,32.00
2019-05-19T15:50:19.774Z,33.00
2019-05-19T15:52:49.470Z,26.10
2019-05-19T15:55:19.121Z,32.87
2019-05-19T15:58:40.574Z,27.57
2019-05-19T16:01:10.215Z,30.70
2019-05-19T16:03:41.205Z,30.87
2019-05-19T16:06:10.846Z,29.13
2019-05-19T16:08:40.561Z,33.57
2019-05-19T16:11:10.217Z,30.40
2019-05-19T16:13:39.815Z,26.93
2019-05-19T16:16:21.651Z,27.50
2019-05-19T16:18:53.205Z,31.27
2019-05-19T16:21:22.618Z,32.20
2019-05-19T16:23:52.226Z,28.83
2019-05-19T16:26:21.853Z,28.23
2019-05-19T16:28:51.442Z,28.50
2019-05-19T16:31:21.054Z,28.90
2019-05-19T16:33:50.658Z,31.20
2019-05-19T16:36:20.283Z,27.47
2019-05-19T16:38:49.942Z,27.47
2019-05-19T16:41:19.726Z,29.80
2019-05-19T16:43:49.342Z,23.30
2019-05-19T16:46:19.917Z,32.87
2019-05-19T16:48:49.534Z,22.77
2019-05-19T16:51:19.141Z,27.10
2019-05-19T16:53:51.023Z,29.80
2019-05-19T16:56:20.671Z,32.27
2019-05-19T16:58:50.290Z,24.77
2019-05-19T17:01:20.198Z,30.30
2019-05-19T17:03:49.858Z,29.17
2019-05-19T17:06:20.226Z,23.77
2019-05-19T17:08:49.856Z,27.23
2019-05-19T17:11:19.479Z,29.73
2019-05-19T17:13:49.082Z,27.73
2019-05-19T17:16:18.688Z,28.30
2019-05-19T17:18:48.316Z,24.90
2019-05-19T17:21:18.002Z,25.93
2019-05-19T17:23:47.610Z,27.43
2019-05-19T17:26:17.226Z,26.00
2019-05-19T17:28:59.785Z,24.93
2019-05-19T17:31:18.408Z,25.67
2019-05-19T17:33:48.031Z,26.10
2019-05-19T17:36:18.702Z,26.13
2019-05-19T17:38:48.339Z,26.70
2019-05-19T17:41:17.952Z,28.97
2019-05-19T17:43:47.574Z,27.67
2019-05-19T17:46:17.264Z,28.80
2019-05-19T17:48:46.890Z,24.90
2019-05-19T17:51:16.508Z,28.43
2019-05-19T17:53:46.125Z,21.07
2019-05-19T17:56:16.684Z,24.43
2019-05-19T17:58:46.675Z,27.50
2019-05-19T18:01:16.304Z,30.87
2019-05-19T18:03:46.384Z,29.60
2019-05-19T18:06:16.070Z,26.30
2019-05-19T18:08:45.683Z,27.07
2019-05-19T18:11:15.317Z,28.30
2019-05-19T18:13:44.926Z,26.40
2019-05-19T18:16:14.535Z,25.83
2019-05-19T18:18:44.174Z,16.97
2019-05-19T18:21:13.802Z,26.50
2019-05-19T18:23:43.413Z,26.70
2019-05-19T18:26:13.082Z,29.07
2019-05-19T18:28:42.668Z,27.23
2019-05-19T18:31:12.374Z,24.47
2019-05-19T18:33:41.982Z,22.23
2019-05-19T18:36:11.611Z,28.17
2019-05-19T18:38:42.203Z,22.23
2019-05-19T18:41:11.818Z,28.60
2019-05-19T18:43:41.436Z,21.53
2019-05-19T18:46:11.051Z,27.17
2019-05-19T18:48:40.670Z,24.27
2019-05-19T18:51:10.559Z,23.93
2019-05-19T18:53:40.410Z,15.53
2019-05-19T18:56:10.022Z,27.73
2019-05-19T18:58:39.631Z,27.53
2019-05-19T19:01:09.325Z,21.80
2019-05-19T19:03:39.010Z,25.53
2019-05-19T19:06:08.651Z,22.40
2019-05-19T19:08:38.293Z,24.07
2019-05-19T19:11:07.923Z,28.23
2019-05-19T19:13:37.535Z,25.13
2019-05-19T19:16:07.158Z,14.30
2019-05-19T19:18:36.775Z,24.73
2019-05-19T19:21:06.411Z,21.40
2019-05-19T19:23:36.048Z,31.47
2019-05-19T19:26:05.774Z,28.87
2019-05-19T19:28:35.383Z,30.73
2019-05-19T19:31:04.994Z,25.00
2019-05-19T19:33:34.663Z,27.23
2019-05-19T19:36:04.539Z,21.70
2019-05-19T19:38:34.142Z,26.83
2019-05-19T19:41:03.830Z,25.67
2019-05-19T19:43:34.442Z,22.53
2019-05-19T19:46:04.139Z,19.10
2019-05-19T19:48:34.009Z,23.77
2019-05-19T19:51:03.619Z,27.67
2019-05-19T19:53:33.258Z,20.73
2019-05-19T19:56:02.878Z,26.83
2019-05-19T19:58:32.604Z,25.47
2019-05-19T20:01:02.228Z,32.70
2019-05-19T20:03:31.873Z,31.43
2019-05-19T20:06:01.483Z,31.97
2019-05-19T20:08:31.204Z,30.20
2019-05-19T20:11:00.827Z,31.03
2019-05-19T20:13:30.467Z,27.37
2019-05-19T20:16:00.095Z,28.27
2019-05-19T20:18:29.788Z,21.07
2019-05-19T20:20:59.473Z,29.70
2019-05-19T20:23:29.102Z,32.13
2019-05-19T20:25:58.710Z,31.27
2019-05-19T20:28:28.327Z,28.17
2019-05-19T20:30:58.012Z,30.97
2019-05-19T20:33:27.700Z,27.40
2019-05-19T20:35:57.364Z,32.63
2019-05-19T20:38:26.978Z,29.17
2019-05-19T20:40:56.614Z,18.27
2019-05-19T20:43:26.826Z,33.07
2019-05-19T20:45:56.517Z,33.57
2019-05-19T20:48:26.138Z,34.27
2019-05-19T20:50:55.759Z,29.30
2019-05-19T20:53:25.381Z,34.63
2019-05-19T20:55:54.994Z,29.43
2019-05-19T20:58:24.621Z,34.73
2019-05-19T21:00:54.268Z,34.57
2019-05-19T21:03:23.887Z,29.70
2019-05-19T21:05:53.498Z,33.40
2019-05-19T21:08:23.117Z,31.93
2019-05-19T21:10:52.814Z,28.27
2019-05-19T21:13:22.453Z,34.67
2019-05-19T21:15:52.129Z,39.07
2019-05-19T21:18:21.826Z,33.13
2019-05-19T21:20:51.430Z,39.00
2019-05-19T21:23:21.059Z,36.67
2019-05-19T21:25:50.677Z,40.67
2019-05-19T21:28:20.294Z,37.80
2019-05-19T21:31:04.521Z,37.43
2019-05-19T21:33:21.334Z,36.43
2019-05-19T21:35:50.976Z,36.53
2019-05-19T21:38:20.590Z,35.60
2019-05-19T21:40:50.217Z,35.43
2019-05-19T21:43:19.878Z,34.13
2019-05-19T21:45:49.535Z,38.97
2019-05-19T21:48:21.010Z,32.77
2019-05-19T21:50:50.634Z,35.97
2019-05-19T21:53:20.287Z,34.20
2019-05-19T21:55:49.969Z,38.23
2019-05-19T21:58:19.603Z,36.67
2019-05-19T22:00:49.827Z,37.80
2019-05-19T22:03:19.480Z,35.27
2019-05-19T22:05:53.541Z,36.87
2019-05-19T22:08:20.518Z,34.90
2019-05-19T22:10:50.218Z,35.00
2019-05-19T22:13:19.834Z,34.50
2019-05-19T22:15:49.519Z,33.80
2019-05-19T22:18:19.223Z,33.27
2019-05-19T22:20:48.891Z,34.27
2019-05-19T22:23:18.546Z,33.73
2019-05-19T22:25:48.170Z,34.67
2019-05-19T22:28:17.781Z,34.13
2019-05-19T22:30:47.454Z,32.13
2019-05-19T22:33:17.090Z,34.67
2019-05-19T22:35:46.711Z,32.70
2019-05-19T22:38:16.334Z,36.53
2019-05-19T22:40:45.963Z,33.23
2019-05-19T22:43:15.558Z,31.90
2019-05-19T22:45:45.433Z,32.50
2019-05-19T22:48:15.062Z,34.07
2019-05-19T22:50:44.699Z,30.00
2019-05-19T22:53:14.306Z,30.93
2019-05-19T22:55:43.941Z,30.63
2019-05-19T22:58:13.563Z,28.67
2019-05-19T23:00:43.251Z,26.83
2019-05-19T23:03:12.867Z,30.43
2019-05-19T23:05:42.494Z,31.53
2019-05-19T23:08:12.179Z,29.33
2019-05-19T23:10:42.146Z,33.53
2019-05-19T23:13:11.738Z,33.10
2019-05-19T23:15:41.373Z,29.37
2019-05-19T23:18:10.981Z,32.10
2019-05-19T23:20:40.652Z,31.30
2019-05-19T23:23:11.330Z,31.90
2019-05-19T23:25:40.942Z,32.57
2019-05-19T23:28:10.605Z,29.80
2019-05-19T23:30:40.209Z,26.57
2019-05-19T23:33:09.827Z,24.83
2019-05-19T23:35:39.447Z,25.23
2019-05-19T23:38:09.058Z,24.23
2019-05-19T23:40:38.670Z,23.37
2019-05-19T23:43:08.302Z,24.77
2019-05-19T23:45:37.910Z,24.60
2019-05-19T23:48:07.528Z,19.40
2019-05-19T23:50:37.135Z,22.60
2019-05-19T23:53:06.754Z,23.83
2019-05-19T23:55:36.362Z,24.90
2019-05-19T23:58:05.972Z,26.07
